EVY23 YSCB-YMAV
Flight info
| Callsign | EVY23 |
|---|---|
| Flight time | N/A |
| Altitude | 38000 |
| Route | YSCB/35 TANTA Q29 NABBA/N0451F400 Q29 BOOIN/N0449F390 ML AV Q29 ML/N0456F400 H345 AD/N0451F390 V255 BENDO Y218 TYNDI Y53 ALAXO/N0369F190 W382 IGNES W15 AV W190 ML H129 DOSEL Y59 ARRAN |
| Aircraft | B38M/M-SADE2E3FGHIJ1J3J4J7M/LB1D1 |
Departure
| Time | 2026-04-30 06:56 |
|---|---|
| Airport | Canberra Airport (YSCB) |
Arrival
| Time | N/A |
|---|---|
| Airport | Melbourne Avalon International Airport (YMAV) |
| Time | Latitude | Longitude | Altitude | Speed | Heading |
|---|---|---|---|---|---|
| 2026-04-30 06:55 | -35.33230 | 148.99567 | 15695 ft | 346 kts | 215° |
| 2026-04-30 06:56 | -35.35231 | 148.97887 | 16665 ft | 352 kts | 215° |
| 2026-04-30 06:56 | -35.37259 | 148.96184 | 17608 ft | 357 kts | 215° |
| 2026-04-30 06:56 | -35.39324 | 148.94449 | 18556 ft | 362 kts | 215° |
| 2026-04-30 06:56 | -35.41389 | 148.92712 | 19372 ft | 367 kts | 215° |
| 2026-04-30 06:57 | -35.43531 | 148.90910 | 20172 ft | 371 kts | 215° |
| 2026-04-30 06:57 | -35.45669 | 148.89110 | 20977 ft | 375 kts | 215° |
| 2026-04-30 06:57 | -35.47802 | 148.87313 | 21752 ft | 379 kts | 215° |
| 2026-04-30 06:57 | -35.49991 | 148.85468 | 22517 ft | 383 kts | 216° |
| 2026-04-30 06:58 | -35.52193 | 148.83611 | 23287 ft | 387 kts | 216° |
| 2026-04-30 06:58 | -35.54432 | 148.81722 | 24025 ft | 392 kts | 216° |
| 2026-04-30 06:58 | -35.56686 | 148.79818 | 24638 ft | 395 kts | 216° |
| 2026-04-30 06:58 | -35.58962 | 148.77894 | 25254 ft | 399 kts | 216° |
| 2026-04-30 06:59 | -35.61258 | 148.75951 | 25868 ft | 402 kts | 216° |
| 2026-04-30 06:59 | -35.63573 | 148.73993 | 26478 ft | 406 kts | 216° |
| 2026-04-30 06:59 | -35.65908 | 148.72015 | 27079 ft | 409 kts | 216° |
| 2026-04-30 06:59 | -35.68249 | 148.70030 | 27660 ft | 412 kts | 216° |
| 2026-04-30 07:00 | -35.70620 | 148.68019 | 28229 ft | 416 kts | 216° |
| 2026-04-30 07:00 | -35.73011 | 148.65989 | 28793 ft | 419 kts | 216° |
| 2026-04-30 07:00 | -35.75424 | 148.63940 | 29345 ft | 423 kts | 216° |
| 2026-04-30 07:00 | -35.77850 | 148.61877 | 29875 ft | 427 kts | 216° |
| 2026-04-30 07:01 | -35.80305 | 148.59789 | 30397 ft | 430 kts | 216° |